createdAt,value
2022-11-16T00:01:57.261Z,100.00
2022-11-16T00:04:25.243Z,100.00
2022-11-16T00:06:53.320Z,100.00
2022-11-16T00:09:27.154Z,100.00
2022-11-16T00:11:57.782Z,100.00
2022-11-16T00:14:27.766Z,100.00
2022-11-16T00:16:56.123Z,100.00
2022-11-16T00:19:24.831Z,100.00
2022-11-16T00:21:53.183Z,100.00
2022-11-16T00:24:24.011Z,100.00
2022-11-16T00:26:54.009Z,100.00
2022-11-16T00:29:23.483Z,100.00
2022-11-16T00:31:52.276Z,100.00
2022-11-16T00:34:21.309Z,100.00
2022-11-16T00:36:49.470Z,100.00
2022-11-16T00:39:20.073Z,100.00
2022-11-16T00:41:49.549Z,100.00
2022-11-16T00:44:17.974Z,100.00
2022-11-16T00:46:46.001Z,100.00
2022-11-16T00:49:13.972Z,100.00
2022-11-16T00:51:42.388Z,100.00
2022-11-16T00:54:10.744Z,99.46
2022-11-16T00:56:40.725Z,99.21
2022-11-16T00:59:10.153Z,98.94
2022-11-16T01:01:38.299Z,99.80
2022-11-16T01:04:06.340Z,100.00
2022-11-16T01:06:34.327Z,100.00
2022-11-16T01:09:02.879Z,99.77
2022-11-16T01:11:48.191Z,98.46
2022-11-16T01:14:17.729Z,99.65
2022-11-16T01:16:45.820Z,100.00
2022-11-16T01:19:13.722Z,100.00
2022-11-16T01:21:41.638Z,100.00
2022-11-16T01:24:09.734Z,100.00
2022-11-16T01:26:37.707Z,100.00
2022-11-16T01:29:05.675Z,100.00
2022-11-16T01:31:35.023Z,99.47
2022-11-16T01:34:03.059Z,98.03
2022-11-16T01:36:31.165Z,99.24
2022-11-16T01:38:59.116Z,99.16
2022-11-16T01:41:27.596Z,99.12
2022-11-16T01:43:58.528Z,99.59
2022-11-16T01:46:27.502Z,98.79
2022-11-16T01:49:03.129Z,98.97
2022-11-16T01:51:31.992Z,99.90
2022-11-16T01:54:02.563Z,100.00
2022-11-16T01:56:32.696Z,99.94
2022-11-16T01:59:00.866Z,99.20
2022-11-16T02:01:28.859Z,100.00
2022-11-16T02:03:58.349Z,100.00
2022-11-16T02:06:35.106Z,100.00
2022-11-16T02:09:36.550Z,99.85
2022-11-16T02:12:15.652Z,100.00
2022-11-16T02:14:59.703Z,100.00
2022-11-16T02:17:37.600Z,100.00
2022-11-16T02:20:33.516Z,100.00
2022-11-16T02:23:24.965Z,100.00
2022-11-16T02:26:06.768Z,100.00
2022-11-16T02:28:45.139Z,100.00
2022-11-16T02:31:18.976Z,100.00
2022-11-16T02:33:50.286Z,100.00
2022-11-16T02:36:22.117Z,100.00
2022-11-16T02:38:55.541Z,100.00
2022-11-16T02:41:26.530Z,100.00
2022-11-16T02:43:59.217Z,100.00
2022-11-16T02:46:33.256Z,100.00
2022-11-16T02:49:04.979Z,100.00
2022-11-16T02:51:35.195Z,100.00
2022-11-16T02:54:11.601Z,100.00
2022-11-16T02:56:48.056Z,100.00
2022-11-16T02:59:17.739Z,100.00
2022-11-16T03:01:53.222Z,100.00
2022-11-16T03:04:25.509Z,100.00
2022-11-16T03:06:57.850Z,100.00
2022-11-16T03:09:30.760Z,100.00
2022-11-16T03:12:05.611Z,100.00
2022-11-16T03:14:39.823Z,100.00
2022-11-16T03:17:12.821Z,100.00
2022-11-16T03:19:43.639Z,100.00
2022-11-16T03:22:15.457Z,100.00
2022-11-16T03:24:44.494Z,100.00
2022-11-16T03:27:22.719Z,100.00
2022-11-16T03:30:01.415Z,100.00
2022-11-16T03:32:37.779Z,100.00
2022-11-16T03:35:11.382Z,100.00
2022-11-16T03:37:40.396Z,100.00
2022-11-16T03:40:10.741Z,100.00
2022-11-16T03:42:40.126Z,100.00
2022-11-16T03:45:09.534Z,100.00
2022-11-16T03:47:38.888Z,100.00
2022-11-16T03:50:08.047Z,100.00
2022-11-16T03:52:36.836Z,100.00
2022-11-16T03:55:05.182Z,100.00
2022-11-16T03:57:33.202Z,100.00
2022-11-16T04:00:01.095Z,100.00
2022-11-16T04:02:29.021Z,100.00
2022-11-16T04:05:15.767Z,100.00
2022-11-16T04:08:01.642Z,100.00
2022-11-16T04:10:58.503Z,100.00
2022-11-16T04:13:46.775Z,100.00
2022-11-16T04:16:32.326Z,100.00
2022-11-16T04:19:17.704Z,100.00
2022-11-16T04:22:12.240Z,100.00
2022-11-16T04:24:43.212Z,100.00
2022-11-16T04:27:34.693Z,100.00
2022-11-16T04:30:03.845Z,100.00
2022-11-16T04:32:48.963Z,100.00
2022-11-16T04:35:34.245Z,100.00
2022-11-16T04:38:03.616Z,100.00
2022-11-16T04:40:31.618Z,100.00
2022-11-16T04:43:01.571Z,100.00
2022-11-16T04:45:47.792Z,100.00
2022-11-16T04:48:17.740Z,100.00
2022-11-16T04:50:47.626Z,100.00
2022-11-16T04:53:17.267Z,100.00
2022-11-16T04:55:46.485Z,100.00
2022-11-16T04:58:14.368Z,100.00
2022-11-16T05:00:42.264Z,100.00
2022-11-16T05:03:10.190Z,100.00
2022-11-16T05:05:38.070Z,100.00
2022-11-16T05:08:06.353Z,100.00
2022-11-16T05:10:35.652Z,100.00
2022-11-16T05:13:03.583Z,100.00
2022-11-16T05:15:31.618Z,100.00
2022-11-16T05:17:59.501Z,100.00
2022-11-16T05:20:45.000Z,100.00
2022-11-16T05:23:26.980Z,100.00
2022-11-16T05:25:56.276Z,100.00
2022-11-16T05:28:24.513Z,100.00
2022-11-16T05:30:52.968Z,100.00
2022-11-16T05:33:21.244Z,100.00
2022-11-16T05:35:50.798Z,100.00
2022-11-16T05:38:18.707Z,100.00
2022-11-16T05:40:46.734Z,100.00
2022-11-16T05:43:16.115Z,100.00
2022-11-16T05:45:44.430Z,100.00
2022-11-16T05:48:12.416Z,100.00
2022-11-16T05:50:43.033Z,100.00
2022-11-16T05:53:11.401Z,100.00
2022-11-16T05:55:39.315Z,100.00
2022-11-16T05:58:07.266Z,100.00
2022-11-16T06:00:36.636Z,100.00
2022-11-16T06:03:04.944Z,100.00
2022-11-16T06:05:40.066Z,100.00
2022-11-16T06:08:08.571Z,100.00
2022-11-16T06:10:36.934Z,100.00
2022-11-16T06:13:04.945Z,100.00
2022-11-16T06:15:32.903Z,100.00
2022-11-16T06:18:02.228Z,100.00
2022-11-16T06:20:30.120Z,100.00
2022-11-16T06:22:58.207Z,100.00
2022-11-16T06:25:26.224Z,100.00
2022-11-16T06:27:54.278Z,100.00
2022-11-16T06:30:22.254Z,100.00
2022-11-16T06:32:50.253Z,100.00
2022-11-16T06:35:19.506Z,100.00
2022-11-16T06:37:47.468Z,100.00
2022-11-16T06:40:15.509Z,100.00
2022-11-16T06:42:43.438Z,100.00
2022-11-16T06:45:11.771Z,100.00
2022-11-16T06:47:39.708Z,100.00
2022-11-16T06:50:08.538Z,100.00
2022-11-16T06:52:37.865Z,100.00
2022-11-16T06:55:06.439Z,99.37
2022-11-16T06:57:35.625Z,98.79
2022-11-16T07:00:04.046Z,99.25
2022-11-16T07:02:32.132Z,98.41
2022-11-16T07:05:03.557Z,98.52
2022-11-16T07:07:32.042Z,98.39
2022-11-16T07:10:01.469Z,98.50
2022-11-16T07:12:29.762Z,97.55
2022-11-16T07:14:57.663Z,96.92
2022-11-16T07:17:25.879Z,96.87
2022-11-16T07:19:53.848Z,96.66
2022-11-16T07:22:21.904Z,96.55
2022-11-16T07:24:49.828Z,95.47
2022-11-16T07:27:19.245Z,95.20
2022-11-16T07:29:47.153Z,95.79
2022-11-16T07:32:15.168Z,96.33
2022-11-16T07:34:43.042Z,95.60
2022-11-16T07:37:11.075Z,95.60
2022-11-16T07:39:39.026Z,94.98
2022-11-16T07:42:11.693Z,93.01
2022-11-16T07:44:41.165Z,92.64
2022-11-16T07:47:09.106Z,92.40
2022-11-16T07:49:37.001Z,93.27
2022-11-16T07:52:04.838Z,93.13
2022-11-16T07:54:34.636Z,91.74
2022-11-16T07:57:02.495Z,91.07
2022-11-16T07:59:30.453Z,91.34
2022-11-16T08:01:59.999Z,90.09
2022-11-16T08:04:27.989Z,89.23
2022-11-16T08:06:55.899Z,88.73
2022-11-16T08:09:23.911Z,89.21
2022-11-16T08:11:51.876Z,89.01
2022-11-16T08:14:20.169Z,88.58
2022-11-16T08:16:48.059Z,87.81
2022-11-16T08:19:17.369Z,86.71
2022-11-16T08:21:48.321Z,85.90
2022-11-16T08:24:16.581Z,87.42
2022-11-16T08:26:45.430Z,86.54
2022-11-16T08:29:14.890Z,86.35
2022-11-16T08:31:46.066Z,86.16
2022-11-16T08:34:14.240Z,86.12
2022-11-16T08:36:45.525Z,84.47
2022-11-16T08:39:13.422Z,84.06
2022-11-16T08:41:42.350Z,82.26
2022-11-16T08:44:10.329Z,80.41
2022-11-16T08:46:38.296Z,79.53
2022-11-16T08:49:06.200Z,78.58
2022-11-16T08:51:34.300Z,77.12
2022-11-16T08:54:05.265Z,77.57
2022-11-16T08:56:33.438Z,77.94
2022-11-16T08:59:01.454Z,76.94
2022-11-16T09:01:30.901Z,76.86
2022-11-16T09:03:58.862Z,78.14
2022-11-16T09:06:28.365Z,78.16
2022-11-16T09:08:56.514Z,77.71
2022-11-16T09:11:27.159Z,76.62
2022-11-16T09:13:56.655Z,76.50
2022-11-16T09:16:27.844Z,75.67
2022-11-16T09:18:56.499Z,75.09
2022-11-16T09:21:26.135Z,75.09
2022-11-16T09:23:55.263Z,75.59
2022-11-16T09:26:26.340Z,75.14
2022-11-16T09:28:56.834Z,74.58
2022-11-16T09:31:27.385Z,73.96
2022-11-16T09:33:58.201Z,73.75
2022-11-16T09:36:26.879Z,73.35
2022-11-16T09:39:23.792Z,72.33
2022-11-16T09:41:57.033Z,72.41
2022-11-16T09:45:04.674Z,72.43
2022-11-16T09:47:49.107Z,72.31
2022-11-16T09:50:34.601Z,71.39
2022-11-16T09:53:23.092Z,70.70
2022-11-16T09:55:53.877Z,69.28
2022-11-16T09:58:28.077Z,70.06
2022-11-16T10:01:01.045Z,69.81
2022-11-16T10:03:34.317Z,69.28
2022-11-16T10:06:06.888Z,68.72
2022-11-16T10:08:44.709Z,68.22
2022-11-16T10:11:34.123Z,68.38
2022-11-16T10:14:19.869Z,67.91
2022-11-16T10:16:53.840Z,66.78
2022-11-16T10:19:31.047Z,66.87
2022-11-16T10:22:05.065Z,66.35
2022-11-16T10:24:53.675Z,67.40
2022-11-16T10:27:35.754Z,67.95
2022-11-16T10:30:10.447Z,66.97
2022-11-16T10:32:42.491Z,66.35
2022-11-16T10:35:18.032Z,65.56
2022-11-16T10:37:49.336Z,65.03
2022-11-16T10:40:22.117Z,64.23
2022-11-16T10:42:58.728Z,63.66
2022-11-16T10:45:34.352Z,64.42
2022-11-16T10:48:12.092Z,64.37
2022-11-16T10:50:43.603Z,64.28
2022-11-16T10:53:14.961Z,63.69
2022-11-16T10:55:43.606Z,64.08
2022-11-16T10:58:11.711Z,64.59
2022-11-16T11:00:46.120Z,64.40
2022-11-16T11:03:14.855Z,64.29
2022-11-16T11:05:53.604Z,66.01
2022-11-16T11:08:30.610Z,65.68
2022-11-16T11:11:03.160Z,64.86
2022-11-16T11:13:31.183Z,65.90
2022-11-16T11:18:52.751Z,65.79
2022-11-16T11:21:24.166Z,65.34
2022-11-16T11:23:54.258Z,64.28
2022-11-16T11:26:37.225Z,63.18
2022-11-16T11:29:18.018Z,62.99
2022-11-16T11:31:49.992Z,63.75
2022-11-16T11:34:22.695Z,63.43
2022-11-16T11:36:55.314Z,63.28
2022-11-16T11:42:23.233Z,62.14
2022-11-16T11:44:59.922Z,61.79
2022-11-16T11:47:59.174Z,62.68
2022-11-16T11:50:41.580Z,61.64
2022-11-16T11:53:17.407Z,61.79
2022-11-16T11:55:45.861Z,61.61
2022-11-16T11:58:18.881Z,60.95
2022-11-16T12:01:23.761Z,60.21
2022-11-16T12:04:11.142Z,59.29
2022-11-16T12:06:50.340Z,59.05
2022-11-16T12:09:35.270Z,59.62
2022-11-16T12:12:14.875Z,60.21
2022-11-16T12:15:03.896Z,59.46
2022-11-16T12:17:41.550Z,59.07
2022-11-16T12:20:29.464Z,59.19
2022-11-16T12:23:16.640Z,58.65
2022-11-16T12:25:52.737Z,58.06
2022-11-16T12:28:35.048Z,57.79
2022-11-16T12:31:19.211Z,57.93
2022-11-16T12:33:56.252Z,58.16
2022-11-16T12:36:34.687Z,58.60
2022-11-16T12:39:17.749Z,58.99
2022-11-16T12:42:05.059Z,59.07
2022-11-16T12:44:49.435Z,58.89
2022-11-16T12:47:25.469Z,59.22
2022-11-16T12:50:09.028Z,58.94
2022-11-16T12:52:58.349Z,59.05
2022-11-16T12:55:39.916Z,59.51
2022-11-16T12:58:15.602Z,59.06
2022-11-16T13:00:56.995Z,59.22
2022-11-16T13:03:33.872Z,59.89
2022-11-16T13:06:05.839Z,59.73
2022-11-16T13:08:44.912Z,59.98
2022-11-16T13:11:19.557Z,60.06
2022-11-16T13:13:53.639Z,60.43
2022-11-16T13:16:23.932Z,61.39
2022-11-16T13:18:53.470Z,61.33
2022-11-16T13:21:32.618Z,61.54
2022-11-16T13:24:14.566Z,61.10
2022-11-16T13:26:49.434Z,61.93
2022-11-16T13:29:30.406Z,62.75
2022-11-16T13:32:06.194Z,62.91
2022-11-16T13:34:37.250Z,62.48
2022-11-16T13:37:45.202Z,62.40
2022-11-16T13:40:29.847Z,62.90
2022-11-16T13:43:06.755Z,64.07
2022-11-16T13:45:38.245Z,64.14
2022-11-16T13:48:18.479Z,64.85
2022-11-16T13:50:51.064Z,64.47
2022-11-16T13:56:16.063Z,63.41
2022-11-16T13:58:49.785Z,62.98
2022-11-16T14:01:19.077Z,62.87
2022-11-16T14:03:48.334Z,62.35
2022-11-16T14:06:45.902Z,62.36
2022-11-16T14:09:48.213Z,62.69
2022-11-16T14:12:53.360Z,65.04
2022-11-16T14:15:24.531Z,67.67
2022-11-16T14:17:55.149Z,69.26
2022-11-16T14:20:40.991Z,69.56
2022-11-16T14:23:16.275Z,69.70
2022-11-16T14:25:50.911Z,69.56
2022-11-16T14:28:39.290Z,69.97
2022-11-16T14:31:19.127Z,69.84
2022-11-16T14:33:52.448Z,71.42
2022-11-16T14:36:37.691Z,72.91
2022-11-16T14:39:28.352Z,72.00
2022-11-16T14:42:00.167Z,71.81
2022-11-16T14:44:32.705Z,71.30
2022-11-16T14:47:03.913Z,71.98
2022-11-16T14:49:36.309Z,71.98
2022-11-16T14:52:08.252Z,73.62
2022-11-16T14:54:40.883Z,75.13
2022-11-16T14:57:14.804Z,74.26
2022-11-16T14:59:43.374Z,73.51
2022-11-16T15:02:20.209Z,73.19
2022-11-16T15:04:49.225Z,74.35
2022-11-16T15:07:18.581Z,74.26
2022-11-16T15:09:49.592Z,73.82
2022-11-16T15:12:37.393Z,74.17
2022-11-16T15:15:09.051Z,74.20
2022-11-16T15:17:39.793Z,73.54
2022-11-16T15:20:17.346Z,74.49
2022-11-16T15:22:47.676Z,75.44
2022-11-16T15:25:28.833Z,76.43
2022-11-16T15:27:58.188Z,75.87
2022-11-16T15:30:28.412Z,75.66
2022-11-16T15:32:58.068Z,75.57
2022-11-16T15:35:30.001Z,76.19
2022-11-16T15:38:06.551Z,77.05
2022-11-16T15:40:35.329Z,77.87
2022-11-16T15:43:06.798Z,78.21
2022-11-16T15:45:35.543Z,78.12
2022-11-16T15:48:06.552Z,78.00
2022-11-16T15:50:34.690Z,76.92
2022-11-16T15:53:02.639Z,75.74
2022-11-16T15:55:35.384Z,76.06
2022-11-16T15:58:07.210Z,76.57
2022-11-16T16:00:37.731Z,76.46
2022-11-16T16:03:17.317Z,76.01
2022-11-16T16:05:45.317Z,74.99
2022-11-16T16:08:28.958Z,74.89
2022-11-16T16:11:05.123Z,74.66
2022-11-16T16:13:35.673Z,74.24
2022-11-16T16:16:24.613Z,74.41
2022-11-16T16:18:55.563Z,75.08
2022-11-16T16:21:24.338Z,76.63
2022-11-16T16:23:54.747Z,76.05
2022-11-16T16:26:23.791Z,75.64
2022-11-16T16:28:52.093Z,75.51
2022-11-16T16:31:21.150Z,76.67
2022-11-16T16:33:49.635Z,77.45
2022-11-16T16:36:18.895Z,78.30
2022-11-16T16:38:46.748Z,78.37
2022-11-16T16:41:24.048Z,78.04
2022-11-16T16:43:52.657Z,77.76
2022-11-16T16:46:20.536Z,77.30
2022-11-16T16:48:48.438Z,76.78
2022-11-16T16:51:16.348Z,76.37
2022-11-16T16:53:45.696Z,76.14
2022-11-16T16:56:16.482Z,75.79
2022-11-16T16:58:44.437Z,75.64
2022-11-16T17:01:12.693Z,75.46
2022-11-16T17:03:40.681Z,76.34
2022-11-16T17:06:08.762Z,75.84
2022-11-16T17:08:37.329Z,76.58
2022-11-16T17:11:07.017Z,76.78
2022-11-16T17:13:35.209Z,76.57
2022-11-16T17:16:05.896Z,75.96
2022-11-16T17:18:33.907Z,76.25
2022-11-16T17:21:05.496Z,76.06
2022-11-16T17:23:33.764Z,75.76
2022-11-16T17:26:06.790Z,75.51
2022-11-16T17:28:35.210Z,75.98
2022-11-16T17:31:03.412Z,76.63
2022-11-16T17:33:34.881Z,76.17
2022-11-16T17:36:03.957Z,75.82
2022-11-16T17:38:31.922Z,76.18
2022-11-16T17:41:06.823Z,76.11
2022-11-16T17:43:35.673Z,76.25
2022-11-16T17:46:08.020Z,76.31
2022-11-16T17:48:36.717Z,76.07
2022-11-16T17:51:04.976Z,76.43
2022-11-16T17:53:35.201Z,77.81
2022-11-16T17:56:04.271Z,77.64
2022-11-16T17:58:34.398Z,78.96
2022-11-16T18:01:02.370Z,78.02
2022-11-16T18:03:30.592Z,78.43
2022-11-16T18:06:05.220Z,79.67
2022-11-16T18:08:33.353Z,79.81
2022-11-16T18:11:05.621Z,79.33
2022-11-16T18:13:35.755Z,79.02
2022-11-16T18:16:05.639Z,78.80
2022-11-16T18:18:33.965Z,77.88
2022-11-16T18:21:02.636Z,78.55
2022-11-16T18:23:30.874Z,78.15
2022-11-16T18:25:58.786Z,77.59
2022-11-16T18:28:26.713Z,77.86
2022-11-16T18:31:04.180Z,77.51
2022-11-16T18:33:32.813Z,76.93
2022-11-16T18:36:01.038Z,77.04
2022-11-16T18:38:28.938Z,76.89
2022-11-16T18:41:07.858Z,77.00
2022-11-16T18:43:36.288Z,76.60
2022-11-16T18:46:06.090Z,76.71
2022-11-16T18:48:34.319Z,76.57
2022-11-16T18:51:03.234Z,76.14
2022-11-16T18:53:32.679Z,76.34
2022-11-16T18:56:01.050Z,76.14
2022-11-16T18:58:49.864Z,76.39
2022-11-16T19:01:19.926Z,76.93
2022-11-16T19:03:47.928Z,76.72
2022-11-16T19:06:17.760Z,78.62
2022-11-16T19:08:53.933Z,78.96
2022-11-16T19:11:24.375Z,78.53
2022-11-16T19:13:54.484Z,79.06
2022-11-16T19:16:24.815Z,79.19
2022-11-16T19:18:53.085Z,78.99
2022-11-16T19:21:21.939Z,78.88
2022-11-16T19:23:52.019Z,79.38
2022-11-16T19:26:24.118Z,81.43
2022-11-16T19:28:53.172Z,81.67
2022-11-16T19:31:24.221Z,80.56
2022-11-16T19:33:56.053Z,80.48
2022-11-16T19:36:24.902Z,80.79
2022-11-16T19:38:53.102Z,81.29
2022-11-16T19:41:22.599Z,82.25
2022-11-16T19:43:52.640Z,82.19
2022-11-16T19:46:21.655Z,81.94
2022-11-16T19:48:51.591Z,82.38
2022-11-16T19:51:21.972Z,82.70
2022-11-16T19:53:50.003Z,82.44
2022-11-16T19:56:19.989Z,81.82
2022-11-16T19:58:48.475Z,81.87
2022-11-16T20:01:18.117Z,81.51
2022-11-16T20:03:47.073Z,83.09
2022-11-16T20:06:18.753Z,82.47
2022-11-16T20:08:49.530Z,81.88
2022-11-16T20:11:20.450Z,81.62
2022-11-16T20:13:48.897Z,81.75
2022-11-16T20:16:17.690Z,82.10
2022-11-16T20:18:45.855Z,83.68
2022-11-16T20:21:19.256Z,82.91
2022-11-16T20:23:47.169Z,82.62
2022-11-16T20:26:16.002Z,82.01
2022-11-16T20:28:46.047Z,82.19
2022-11-16T20:31:16.680Z,82.34
2022-11-16T20:33:51.559Z,81.92
2022-11-16T20:36:22.808Z,81.41
2022-11-16T20:38:51.318Z,82.68
2022-11-16T20:41:20.768Z,83.67
2022-11-16T20:43:51.513Z,83.74
2022-11-16T20:46:20.005Z,83.68
2022-11-16T20:48:48.293Z,84.19
2022-11-16T20:51:18.444Z,84.13
2022-11-16T20:53:49.062Z,83.72
2022-11-16T20:56:19.225Z,85.14
2022-11-16T20:58:48.015Z,84.57
2022-11-16T21:01:17.274Z,83.78
2022-11-16T21:03:45.373Z,84.45
2022-11-16T21:06:13.914Z,84.50
2022-11-16T21:08:42.762Z,83.70
2022-11-16T21:11:13.474Z,83.59
2022-11-16T21:13:59.264Z,83.00
2022-11-16T21:16:27.390Z,82.86
2022-11-16T21:18:55.630Z,83.88
2022-11-16T21:21:23.619Z,83.84
2022-11-16T21:23:53.196Z,84.30
2022-11-16T21:26:24.311Z,86.37
2022-11-16T21:28:52.327Z,86.81
2022-11-16T21:31:22.404Z,85.75
2022-11-16T21:33:50.280Z,86.24
2022-11-16T21:36:22.481Z,86.04
2022-11-16T21:38:50.605Z,87.49
2022-11-16T21:41:19.894Z,87.29
2022-11-16T21:43:49.438Z,87.17
2022-11-16T21:46:18.990Z,86.35
2022-11-16T21:48:48.167Z,86.69
2022-11-16T21:51:18.499Z,88.10
2022-11-16T21:53:46.903Z,88.69
2022-11-16T21:56:16.316Z,87.26
2022-11-16T21:58:44.561Z,87.09
2022-11-16T22:01:16.010Z,86.18
2022-11-16T22:03:45.685Z,86.11
2022-11-16T22:06:33.538Z,85.77
2022-11-16T22:09:01.685Z,86.60
2022-11-16T22:11:29.655Z,86.17
2022-11-16T22:13:57.499Z,85.88
2022-11-16T22:16:26.734Z,87.79
2022-11-16T22:18:54.639Z,87.77
2022-11-16T22:21:22.533Z,87.56
2022-11-16T22:23:50.424Z,87.18
2022-11-16T22:26:18.505Z,86.34
2022-11-16T22:28:46.379Z,86.37
2022-11-16T22:31:15.627Z,86.59
2022-11-16T22:33:45.402Z,86.84
2022-11-16T22:36:13.662Z,86.88
2022-11-16T22:38:41.510Z,87.77
2022-11-16T22:41:10.139Z,87.83
2022-11-16T22:43:39.103Z,87.06
2022-11-16T22:46:07.462Z,87.38
2022-11-16T22:48:36.898Z,87.88
2022-11-16T22:51:08.764Z,89.20
2022-11-16T22:53:36.979Z,89.91
2022-11-16T22:56:08.928Z,89.86
2022-11-16T22:58:37.186Z,90.23
2022-11-16T23:01:05.648Z,92.35
2022-11-16T23:03:34.539Z,92.36
2022-11-16T23:06:02.719Z,92.35
2022-11-16T23:08:32.498Z,91.88
2022-11-16T23:11:18.922Z,91.86
2022-11-16T23:14:04.426Z,92.67
2022-11-16T23:16:32.492Z,95.62
2022-11-16T23:19:00.349Z,96.50
2022-11-16T23:21:46.100Z,95.70
2022-11-16T23:24:33.916Z,95.17
2022-11-16T23:27:21.261Z,96.34
2022-11-16T23:29:49.540Z,95.95
2022-11-16T23:32:17.526Z,99.78
2022-11-16T23:34:45.390Z,99.64
2022-11-16T23:37:13.273Z,98.98
2022-11-16T23:39:42.560Z,100.00
2022-11-16T23:42:28.692Z,100.00
2022-11-16T23:44:56.902Z,100.00
2022-11-16T23:47:25.249Z,100.00
2022-11-16T23:49:53.151Z,100.00
2022-11-16T23:52:21.039Z,100.00
2022-11-16T23:54:50.272Z,100.00
2022-11-16T23:57:18.149Z,100.00
2022-11-16T23:59:45.977Z,100.00
